sensor_id;sensor_type;location;lat;lon;timestamp;temperature;humidity
10846;DHT22;5476;51.540;7.186;2022-09-11T00:03:08;16.80;99.90
10846;DHT22;5476;51.540;7.186;2022-09-11T00:05:39;16.80;99.90
10846;DHT22;5476;51.540;7.186;2022-09-11T00:08:07;16.80;99.90
10846;DHT22;5476;51.540;7.186;2022-09-11T00:10:34;16.80;99.90
10846;DHT22;5476;51.540;7.186;2022-09-11T00:13:05;16.50;99.90
10846;DHT22;5476;51.540;7.186;2022-09-11T00:15:35;16.60;99.90
10846;DHT22;5476;51.540;7.186;2022-09-11T00:18:04;16.60;99.90
10846;DHT22;5476;51.540;7.186;2022-09-11T00:20:32;16.70;99.90
10846;DHT22;5476;51.540;7.186;2022-09-11T00:23:00;16.70;99.90
10846;DHT22;5476;51.540;7.186;2022-09-11T00:25:30;16.60;99.90
10846;DHT22;5476;51.540;7.186;2022-09-11T00:27:58;16.60;99.90
10846;DHT22;5476;51.540;7.186;2022-09-11T00:30:25;16.60;99.90
10846;DHT22;5476;51.540;7.186;2022-09-11T00:32:52;16.60;99.90
10846;DHT22;5476;51.540;7.186;2022-09-11T00:35:19;16.60;99.90
10846;DHT22;5476;51.540;7.186;2022-09-11T00:37:47;16.50;99.90
10846;DHT22;5476;51.540;7.186;2022-09-11T00:40:14;16.50;99.90
10846;DHT22;5476;51.540;7.186;2022-09-11T00:45:22;17.10;99.90
10846;DHT22;5476;51.540;7.186;2022-09-11T00:47:51;16.40;99.90
10846;DHT22;5476;51.540;7.186;2022-09-11T00:50:21;16.40;99.90
10846;DHT22;5476;51.540;7.186;2022-09-11T00:52:53;16.40;99.90
10846;DHT22;5476;51.540;7.186;2022-09-11T00:55:24;16.40;99.90
10846;DHT22;5476;51.540;7.186;2022-09-11T00:57:56;16.40;99.90
10846;DHT22;5476;51.540;7.186;2022-09-11T01:02:52;16.40;99.90
10846;DHT22;5476;51.540;7.186;2022-09-11T01:05:21;16.40;99.90
10846;DHT22;5476;51.540;7.186;2022-09-11T01:07:52;16.40;99.90
10846;DHT22;5476;51.540;7.186;2022-09-11T01:10:25;16.30;99.90
10846;DHT22;5476;51.540;7.186;2022-09-11T01:13:03;16.20;99.90
10846;DHT22;5476;51.540;7.186;2022-09-11T01:15:37;16.30;99.90
10846;DHT22;5476;51.540;7.186;2022-09-11T01:18:12;16.30;99.90
10846;DHT22;5476;51.540;7.186;2022-09-11T01:20:55;16.40;99.90
10846;DHT22;5476;51.540;7.186;2022-09-11T01:23:51;16.30;99.90
10846;DHT22;5476;51.540;7.186;2022-09-11T01:26:34;16.30;99.90
10846;DHT22;5476;51.540;7.186;2022-09-11T01:29:07;16.30;99.90
10846;DHT22;5476;51.540;7.186;2022-09-11T01:31:39;16.30;99.90
10846;DHT22;5476;51.540;7.186;2022-09-11T01:34:14;16.30;99.90
10846;DHT22;5476;51.540;7.186;2022-09-11T01:36:49;16.30;99.90
10846;DHT22;5476;51.540;7.186;2022-09-11T01:39:20;16.30;99.90
10846;DHT22;5476;51.540;7.186;2022-09-11T01:41:51;16.30;99.90
10846;DHT22;5476;51.540;7.186;2022-09-11T01:44:25;16.40;99.90
10846;DHT22;5476;51.540;7.186;2022-09-11T01:46:53;16.40;99.90
10846;DHT22;5476;51.540;7.186;2022-09-11T01:49:23;16.30;99.90
10846;DHT22;5476;51.540;7.186;2022-09-11T01:51:55;16.40;99.90
10846;DHT22;5476;51.540;7.186;2022-09-11T01:54:28;16.40;99.90
10846;DHT22;5476;51.540;7.186;2022-09-11T01:57:00;16.40;99.90
10846;DHT22;5476;51.540;7.186;2022-09-11T01:59:34;16.40;99.90
10846;DHT22;5476;51.540;7.186;2022-09-11T02:02:05;16.40;99.90
10846;DHT22;5476;51.540;7.186;2022-09-11T02:04:35;16.40;99.90
10846;DHT22;5476;51.540;7.186;2022-09-11T02:07:08;16.40;99.90
10846;DHT22;5476;51.540;7.186;2022-09-11T02:09:39;16.40;99.90
10846;DHT22;5476;51.540;7.186;2022-09-11T02:12:10;16.40;99.90
10846;DHT22;5476;51.540;7.186;2022-09-11T02:14:41;16.40;99.90
10846;DHT22;5476;51.540;7.186;2022-09-11T02:17:16;16.40;99.90
10846;DHT22;5476;51.540;7.186;2022-09-11T02:27:11;16.30;99.90
10846;DHT22;5476;51.540;7.186;2022-09-11T02:29:42;16.30;99.90
10846;DHT22;5476;51.540;7.186;2022-09-11T02:34:39;16.40;99.90
10846;DHT22;5476;51.540;7.186;2022-09-11T02:37:25;16.40;99.90
10846;DHT22;5476;51.540;7.186;2022-09-11T02:40:10;16.30;99.90
10846;DHT22;5476;51.540;7.186;2022-09-11T02:42:51;16.30;99.90
10846;DHT22;5476;51.540;7.186;2022-09-11T02:45:33;16.30;99.90
10846;DHT22;5476;51.540;7.186;2022-09-11T02:48:18;16.20;99.90
10846;DHT22;5476;51.540;7.186;2022-09-11T02:50:57;16.20;99.90
10846;DHT22;5476;51.540;7.186;2022-09-11T02:53:30;16.20;99.90
10846;DHT22;5476;51.540;7.186;2022-09-11T02:56:06;16.20;99.90
10846;DHT22;5476;51.540;7.186;2022-09-11T02:58:37;16.30;99.90
10846;DHT22;5476;51.540;7.186;2022-09-11T05:09:08;16.40;99.90
10846;DHT22;5476;51.540;7.186;2022-09-11T05:16:33;16.50;99.90
10846;DHT22;5476;51.540;7.186;2022-09-11T08:41:35;17.60;99.90
10846;DHT22;5476;51.540;7.186;2022-09-11T08:44:14;17.60;99.90
10846;DHT22;5476;51.540;7.186;2022-09-11T08:46:44;17.60;99.90
10846;DHT22;5476;51.540;7.186;2022-09-11T08:49:18;17.50;99.90
10846;DHT22;5476;51.540;7.186;2022-09-11T08:54:22;17.30;99.90
10846;DHT22;5476;51.540;7.186;2022-09-11T08:59:28;17.40;99.90
10846;DHT22;5476;51.540;7.186;2022-09-11T09:02:06;17.40;99.90
10846;DHT22;5476;51.540;7.186;2022-09-11T09:12:16;17.70;99.90
10846;DHT22;5476;51.540;7.186;2022-09-11T09:15:12;17.80;99.90
10846;DHT22;5476;51.540;7.186;2022-09-11T09:17:44;17.80;99.90
10846;DHT22;5476;51.540;7.186;2022-09-11T09:22:46;18.00;99.90
10846;DHT22;5476;51.540;7.186;2022-09-11T09:30:15;18.00;99.90
10846;DHT22;5476;51.540;7.186;2022-09-11T09:35:15;18.00;99.90
10846;DHT22;5476;51.540;7.186;2022-09-11T09:40:15;18.10;99.90
10846;DHT22;5476;51.540;7.186;2022-09-11T09:43:03;18.20;99.90
10846;DHT22;5476;51.540;7.186;2022-09-11T09:50:42;18.40;99.90
10846;DHT22;5476;51.540;7.186;2022-09-11T09:53:15;18.40;99.90
10846;DHT22;5476;51.540;7.186;2022-09-11T10:05:47;18.70;99.90
10846;DHT22;5476;51.540;7.186;2022-09-11T10:08:25;18.70;99.90
10846;DHT22;5476;51.540;7.186;2022-09-11T10:10:55;18.70;99.90
10846;DHT22;5476;51.540;7.186;2022-09-11T10:15:54;18.70;99.90
10846;DHT22;5476;51.540;7.186;2022-09-11T10:18:35;18.80;99.90
10846;DHT22;5476;51.540;7.186;2022-09-11T10:21:17;18.90;99.90
10846;DHT22;5476;51.540;7.186;2022-09-11T10:23:46;19.00;99.90
10846;DHT22;5476;51.540;7.186;2022-09-11T10:26:17;19.00;99.90
10846;DHT22;5476;51.540;7.186;2022-09-11T10:33:47;19.10;99.90
10846;DHT22;5476;51.540;7.186;2022-09-11T10:36:21;19.10;99.90
10846;DHT22;5476;51.540;7.186;2022-09-11T10:38:49;19.10;99.90
10846;DHT22;5476;51.540;7.186;2022-09-11T10:41:18;19.10;99.90
10846;DHT22;5476;51.540;7.186;2022-09-11T10:46:29;19.10;99.90
10846;DHT22;5476;51.540;7.186;2022-09-11T10:51:27;19.10;99.90
10846;DHT22;5476;51.540;7.186;2022-09-11T10:54:18;19.20;99.90
10846;DHT22;5476;51.540;7.186;2022-09-11T10:57:02;19.20;99.90
10846;DHT22;5476;51.540;7.186;2022-09-11T10:59:37;19.20;99.90
10846;DHT22;5476;51.540;7.186;2022-09-11T11:02:17;19.30;99.90
10846;DHT22;5476;51.540;7.186;2022-09-11T11:07:26;19.30;99.90
10846;DHT22;5476;51.540;7.186;2022-09-11T11:10:04;19.40;99.90
10846;DHT22;5476;51.540;7.186;2022-09-11T11:12:45;19.50;99.90
10846;DHT22;5476;51.540;7.186;2022-09-11T11:15:29;19.50;99.90
10846;DHT22;5476;51.540;7.186;2022-09-11T11:21:12;19.60;99.90
10846;DHT22;5476;51.540;7.186;2022-09-11T11:23:54;19.60;99.90
10846;DHT22;5476;51.540;7.186;2022-09-11T11:26:35;19.60;99.90
10846;DHT22;5476;51.540;7.186;2022-09-11T11:29:25;19.70;99.90
10846;DHT22;5476;51.540;7.186;2022-09-11T11:32:15;19.70;99.90
10846;DHT22;5476;51.540;7.186;2022-09-11T11:35:16;19.70;99.90
10846;DHT22;5476;51.540;7.186;2022-09-11T11:37:46;19.70;99.90
10846;DHT22;5476;51.540;7.186;2022-09-11T11:40:20;19.80;99.90
10846;DHT22;5476;51.540;7.186;2022-09-11T11:42:50;19.80;99.90
10846;DHT22;5476;51.540;7.186;2022-09-11T11:45:22;19.90;99.90
10846;DHT22;5476;51.540;7.186;2022-09-11T11:47:51;19.90;99.90
10846;DHT22;5476;51.540;7.186;2022-09-11T11:50:25;19.90;99.90
10846;DHT22;5476;51.540;7.186;2022-09-11T11:53:00;19.90;99.90
10846;DHT22;5476;51.540;7.186;2022-09-11T11:55:38;20.00;99.90
10846;DHT22;5476;51.540;7.186;2022-09-11T11:58:12;20.00;99.90
10846;DHT22;5476;51.540;7.186;2022-09-11T12:08:12;20.30;99.90
10846;DHT22;5476;51.540;7.186;2022-09-11T12:10:42;20.30;99.90
10846;DHT22;5476;51.540;7.186;2022-09-11T12:13:13;20.40;99.90
10846;DHT22;5476;51.540;7.186;2022-09-11T12:16:00;20.40;99.90
10846;DHT22;5476;51.540;7.186;2022-09-11T12:32:26;20.70;99.90
10846;DHT22;5476;51.540;7.186;2022-09-11T12:35:15;20.80;99.90
10846;DHT22;5476;51.540;7.186;2022-09-11T12:37:49;21.00;99.90
10846;DHT22;5476;51.540;7.186;2022-09-11T12:40:24;21.10;99.90
10846;DHT22;5476;51.540;7.186;2022-09-11T12:42:58;21.20;99.90
10846;DHT22;5476;51.540;7.186;2022-09-11T12:45:34;21.40;99.90
10846;DHT22;5476;51.540;7.186;2022-09-11T12:55:34;22.60;99.90
10846;DHT22;5476;51.540;7.186;2022-09-11T12:58:06;23.10;99.90
10846;DHT22;5476;51.540;7.186;2022-09-11T13:00:37;23.50;99.90
10846;DHT22;5476;51.540;7.186;2022-09-11T13:03:07;23.80;99.90
10846;DHT22;5476;51.540;7.186;2022-09-11T13:08:14;24.60;99.90
10846;DHT22;5476;51.540;7.186;2022-09-11T13:16:22;25.30;99.90
10846;DHT22;5476;51.540;7.186;2022-09-11T13:21:18;25.40;99.90
10846;DHT22;5476;51.540;7.186;2022-09-11T13:26:22;25.80;99.90
10846;DHT22;5476;51.540;7.186;2022-09-11T13:28:52;26.20;99.90
10846;DHT22;5476;51.540;7.186;2022-09-11T13:31:28;26.50;99.90
10846;DHT22;5476;51.540;7.186;2022-09-11T13:33:56;26.70;99.90
10846;DHT22;5476;51.540;7.186;2022-09-11T13:38:54;26.80;99.90
10846;DHT22;5476;51.540;7.186;2022-09-11T13:41:27;26.70;99.90
10846;DHT22;5476;51.540;7.186;2022-09-11T13:43:57;26.40;99.90
10846;DHT22;5476;51.540;7.186;2022-09-11T13:46:26;26.40;99.90
10846;DHT22;5476;51.540;7.186;2022-09-11T13:48:58;26.30;99.90
10846;DHT22;5476;51.540;7.186;2022-09-11T13:51:42;26.30;99.90
10846;DHT22;5476;51.540;7.186;2022-09-11T13:54:13;26.30;99.90
10846;DHT22;5476;51.540;7.186;2022-09-11T13:56:44;26.00;99.90
10846;DHT22;5476;51.540;7.186;2022-09-11T13:59:26;26.00;99.90
10846;DHT22;5476;51.540;7.186;2022-09-11T14:01:55;25.80;99.90
10846;DHT22;5476;51.540;7.186;2022-09-11T14:06:52;25.70;99.90
10846;DHT22;5476;51.540;7.186;2022-09-11T14:09:21;25.70;99.90
10846;DHT22;5476;51.540;7.186;2022-09-11T14:11:50;25.80;99.90
10846;DHT22;5476;51.540;7.186;2022-09-11T14:14:21;25.80;99.90
10846;DHT22;5476;51.540;7.186;2022-09-11T14:16:52;25.80;99.90
10846;DHT22;5476;51.540;7.186;2022-09-11T14:19:24;25.80;99.90
10846;DHT22;5476;51.540;7.186;2022-09-11T14:24:27;25.90;99.90
10846;DHT22;5476;51.540;7.186;2022-09-11T14:29:25;25.80;99.90
10846;DHT22;5476;51.540;7.186;2022-09-11T14:31:54;25.70;99.90
10846;DHT22;5476;51.540;7.186;2022-09-11T14:37:10;25.70;99.90
10846;DHT22;5476;51.540;7.186;2022-09-11T14:39:40;25.70;99.90
10846;DHT22;5476;51.540;7.186;2022-09-11T14:42:13;25.80;99.90
10846;DHT22;5476;51.540;7.186;2022-09-11T14:44:41;25.80;99.90
10846;DHT22;5476;51.540;7.186;2022-09-11T14:47:13;25.80;99.90
10846;DHT22;5476;51.540;7.186;2022-09-11T14:52:11;25.90;99.90
10846;DHT22;5476;51.540;7.186;2022-09-11T14:54:39;25.80;99.90
10846;DHT22;5476;51.540;7.186;2022-09-11T14:57:11;25.80;99.90
10846;DHT22;5476;51.540;7.186;2022-09-11T15:02:09;25.60;99.90
10846;DHT22;5476;51.540;7.186;2022-09-11T15:26:45;25.20;99.90
10846;DHT22;5476;51.540;7.186;2022-09-11T15:34:09;25.30;99.90
10846;DHT22;5476;51.540;7.186;2022-09-11T15:46:30;25.60;99.90
10846;DHT22;5476;51.540;7.186;2022-09-11T15:53:57;25.60;99.90
10846;DHT22;5476;51.540;7.186;2022-09-11T15:58:56;25.70;99.90
10846;DHT22;5476;51.540;7.186;2022-09-11T16:01:24;25.80;99.90
10846;DHT22;5476;51.540;7.186;2022-09-11T16:03:53;25.80;99.90
10846;DHT22;5476;51.540;7.186;2022-09-11T16:06:23;25.80;99.90
10846;DHT22;5476;51.540;7.186;2022-09-11T16:08:50;25.80;99.90
10846;DHT22;5476;51.540;7.186;2022-09-11T16:13:49;25.80;99.90
10846;DHT22;5476;51.540;7.186;2022-09-11T16:16:17;25.90;99.90
10846;DHT22;5476;51.540;7.186;2022-09-11T16:21:18;25.90;99.90
10846;DHT22;5476;51.540;7.186;2022-09-11T16:23:47;25.90;99.90
10846;DHT22;5476;51.540;7.186;2022-09-11T16:26:16;25.60;99.90
10846;DHT22;5476;51.540;7.186;2022-09-11T16:28:44;25.50;99.90
10846;DHT22;5476;51.540;7.186;2022-09-11T16:31:14;25.40;99.90
10846;DHT22;5476;51.540;7.186;2022-09-11T16:33:43;25.30;99.90
10846;DHT22;5476;51.540;7.186;2022-09-11T16:36:14;20.90;99.90
10846;DHT22;5476;51.540;7.186;2022-09-11T16:41:12;25.20;99.90
10846;DHT22;5476;51.540;7.186;2022-09-11T16:43:43;25.20;99.90
10846;DHT22;5476;51.540;7.186;2022-09-11T16:46:11;25.20;99.90
10846;DHT22;5476;51.540;7.186;2022-09-11T16:53:34;24.80;99.90
10846;DHT22;5476;51.540;7.186;2022-09-11T16:56:03;25.70;99.90
10846;DHT22;5476;51.540;7.186;2022-09-11T17:01:02;24.50;99.90
10846;DHT22;5476;51.540;7.186;2022-09-11T17:10:54;24.50;99.90
10846;DHT22;5476;51.540;7.186;2022-09-11T17:15:50;24.40;99.90
10846;DHT22;5476;51.540;7.186;2022-09-11T17:25:40;24.10;99.90
10846;DHT22;5476;51.540;7.186;2022-09-11T17:52:47;23.00;99.90
10846;DHT22;5476;51.540;7.186;2022-09-11T18:02:37;22.60;99.90
10846;DHT22;5476;51.540;7.186;2022-09-11T18:05:05;22.60;99.90
10846;DHT22;5476;51.540;7.186;2022-09-11T19:31:25;20.10;99.90
10846;DHT22;5476;51.540;7.186;2022-09-11T19:38:52;20.00;99.90
10846;DHT22;5476;51.540;7.186;2022-09-11T19:41:22;19.90;99.90
10846;DHT22;5476;51.540;7.186;2022-09-11T19:46:21;19.70;99.90
10846;DHT22;5476;51.540;7.186;2022-09-11T19:48:51;19.70;99.90
10846;DHT22;5476;51.540;7.186;2022-09-11T19:51:21;19.60;99.90
10846;DHT22;5476;51.540;7.186;2022-09-11T19:56:18;19.40;99.90
10846;DHT22;5476;51.540;7.186;2022-09-11T20:01:14;19.40;99.90
10846;DHT22;5476;51.540;7.186;2022-09-11T20:08:40;19.20;99.90
10846;DHT22;5476;51.540;7.186;2022-09-11T20:11:09;19.20;99.90
10846;DHT22;5476;51.540;7.186;2022-09-11T20:16:06;19.10;99.90
10846;DHT22;5476;51.540;7.186;2022-09-11T23:11:17;16.60;99.90
10846;DHT22;5476;51.540;7.186;2022-09-11T23:21:10;16.50;99.90
10846;DHT22;5476;51.540;7.186;2022-09-11T23:28:35;16.40;99.90
10846;DHT22;5476;51.540;7.186;2022-09-11T23:31:02;16.40;99.90
